Time,TemperatureF,DewpointF,PressureIn,WindDirection,WindDirectionDegrees,WindSpeedMPH,WindSpeedGustMPH,Humidity,HourlyPrecipIn,Conditions,Clouds,dailyrainin,SolarRadiationWatts/m^2,SoftwareType,DateUTC
2013-05-16 00:05:00,66.7,62.7,29.89,ESE,114,2.0,9.0,87,0.00,,,0.00,0,Wunderground v.1.15,2013-05-16 05:05:00,
2013-05-16 00:11:00,66.9,62.9,29.89,ESE,115,3.0,9.0,87,0.00,,,0.00,0,Wunderground v.1.15,2013-05-16 05:11:00,
2013-05-16 00:17:00,66.9,62.9,29.88,ESE,123,4.0,9.0,87,0.00,,,0.00,0,Wunderground v.1.15,2013-05-16 05:17:00,
2013-05-16 00:23:00,66.7,62.7,29.88,ESE,123,5.0,9.0,87,0.00,,,0.00,0,Wunderground v.1.15,2013-05-16 05:23:00,
2013-05-16 00:29:00,66.4,62.4,29.88,ESE,123,3.0,9.0,87,0.00,,,0.00,0,Wunderground v.1.15,2013-05-16 05:29:00,
2013-05-16 00:35:00,66.2,62.2,29.88,ESE,123,3.0,9.0,87,0.00,,,0.00,0,Wunderground v.1.15,2013-05-16 05:35:00,
2013-05-16 00:41:00,65.8,61.8,29.87,ESE,122,4.0,9.0,87,0.00,,,0.00,0,Wunderground v.1.15,2013-05-16 05:41:00,
2013-05-16 00:47:00,65.9,62.2,29.87,ESE,122,3.0,9.0,88,0.00,,,0.00,0,Wunderground v.1.15,2013-05-16 05:47:00,
2013-05-16 00:53:00,65.8,62.1,29.87,ESE,121,3.0,9.0,88,0.00,,,0.00,0,Wunderground v.1.15,2013-05-16 05:53:00,
2013-05-16 01:00:00,65.9,62.2,29.87,ESE,120,4.0,9.0,88,0.00,,,0.00,0,Wunderground v.1.15,2013-05-16 06:00:00,
2013-05-16 01:05:00,65.9,62.2,29.87,ESE,118,4.0,4.0,88,0.00,,,0.00,0,Wunderground v.1.15,2013-05-16 06:05:00,
2013-05-16 01:11:00,65.9,62.2,29.87,ESE,112,4.0,4.0,88,0.00,,,0.00,0,Wunderground v.1.15,2013-05-16 06:11:00,
2013-05-16 01:17:00,65.9,62.2,29.86,ESE,107,4.0,4.0,88,0.00,,,0.00,0,Wunderground v.1.15,2013-05-16 06:17:00,
2013-05-16 01:23:00,65.9,62.2,29.86,ESE,109,4.0,5.0,88,0.00,,,0.00,0,Wunderground v.1.15,2013-05-16 06:23:00,
2013-05-16 01:29:00,65.8,62.1,29.85,East,100,4.0,4.0,88,0.00,,,0.00,0,Wunderground v.1.15,2013-05-16 06:29:00,
2013-05-16 01:35:00,65.8,62.1,29.85,ESE,106,3.0,3.0,88,0.00,,,0.00,0,Wunderground v.1.15,2013-05-16 06:35:00,
2013-05-16 01:41:00,65.7,62.0,29.85,ESE,110,3.0,5.0,88,0.00,,,0.00,0,Wunderground v.1.15,2013-05-16 06:41:00,
2013-05-16 01:47:00,65.5,61.9,29.85,ESE,108,3.0,3.0,88,0.00,,,0.00,0,Wunderground v.1.15,2013-05-16 06:47:00,
2013-05-16 01:53:00,65.4,61.8,29.85,ESE,112,3.0,5.0,88,0.00,,,0.00,0,Wunderground v.1.15,2013-05-16 06:53:00,
2013-05-16 01:59:00,65.4,61.8,29.84,ESE,115,3.0,6.0,88,0.00,,,0.00,0,Wunderground v.1.15,2013-05-16 06:59:00,
2013-05-16 02:05:00,65.5,61.9,29.84,ESE,104,3.0,3.0,88,0.00,,,0.00,0,Wunderground v.1.15,2013-05-16 07:05:00,
2013-05-16 02:11:00,65.6,61.9,29.83,ESE,104,2.0,6.0,88,0.00,,,0.00,0,Wunderground v.1.15,2013-05-16 07:11:00,
2013-05-16 02:17:00,65.3,61.7,29.83,ESE,104,2.0,6.0,88,0.00,,,0.00,0,Wunderground v.1.15,2013-05-16 07:17:00,
2013-05-16 02:23:00,65.0,61.4,29.83,ESE,104,2.0,6.0,88,0.00,,,0.00,0,Wunderground v.1.15,2013-05-16 07:23:00,
2013-05-16 02:29:00,64.7,61.1,29.83,ESE,104,1.0,6.0,88,0.00,,,0.00,0,Wunderground v.1.15,2013-05-16 07:29:00,
2013-05-16 02:35:00,64.6,61.3,29.83,ESE,104,1.0,6.0,89,0.00,,,0.00,0,Wunderground v.1.15,2013-05-16 07:35:00,
2013-05-16 02:41:00,64.2,60.6,29.84,ESE,104,2.0,6.0,88,0.00,,,0.00,0,Wunderground v.1.15,2013-05-16 07:41:00,
2013-05-16 02:47:00,64.0,60.7,29.84,East,97,3.0,6.0,89,0.00,,,0.00,0,Wunderground v.1.15,2013-05-16 07:47:00,
2013-05-16 02:53:00,64.1,60.8,29.85,East,97,3.0,6.0,89,0.00,,,0.00,0,Wunderground v.1.15,2013-05-16 07:53:00,
2013-05-16 02:59:00,64.0,60.7,29.84,East,97,2.0,6.0,89,0.00,,,0.00,0,Wunderground v.1.15,2013-05-16 07:59:00,
2013-05-16 03:05:00,64.4,61.1,29.84,East,97,2.0,6.0,89,0.00,,,0.00,0,Wunderground v.1.15,2013-05-16 08:05:00,
2013-05-16 03:11:00,64.6,61.3,29.84,East,96,3.0,6.0,89,0.00,,,0.00,0,Wunderground v.1.15,2013-05-16 08:11:00,
2013-05-16 03:17:00,64.8,61.8,29.84,East,95,4.0,6.0,90,0.00,,,0.00,0,Wunderground v.1.15,2013-05-16 08:17:00,
2013-05-16 03:23:00,64.9,61.6,29.84,East,87,3.0,6.0,89,0.00,,,0.00,0,Wunderground v.1.15,2013-05-16 08:23:00,
2013-05-16 03:29:00,64.8,61.5,29.84,East,91,3.0,6.0,89,0.00,,,0.00,0,Wunderground v.1.15,2013-05-16 08:29:00,
2013-05-16 03:35:00,64.7,61.4,29.84,East,95,3.0,6.0,89,0.00,,,0.00,0,Wunderground v.1.15,2013-05-16 08:35:00,
2013-05-16 03:41:00,64.6,61.3,29.84,East,95,3.0,6.0,89,0.00,,,0.00,0,Wunderground v.1.15,2013-05-16 08:41:00,
2013-05-16 03:47:00,64.5,61.2,29.84,East,95,3.0,6.0,89,0.00,,,0.00,0,Wunderground v.1.15,2013-05-16 08:47:00,
2013-05-16 03:53:00,64.4,60.8,29.84,East,95,3.0,6.0,88,0.00,,,0.00,0,Wunderground v.1.15,2013-05-16 08:53:00,
2013-05-16 03:59:00,64.0,60.4,29.84,East,95,3.0,6.0,88,0.00,,,0.00,0,Wunderground v.1.15,2013-05-16 08:59:00,
2013-05-16 04:05:00,63.7,60.1,29.84,East,95,2.0,2.0,88,0.00,,,0.00,0,Wunderground v.1.15,2013-05-16 09:05:00,
2013-05-16 04:11:00,63.4,59.8,29.85,East,95,2.0,6.0,88,0.00,,,0.00,0,Wunderground v.1.15,2013-05-16 09:11:00,
2013-05-16 04:17:00,63.2,59.6,29.85,East,95,2.0,6.0,88,0.00,,,0.00,0,Wunderground v.1.15,2013-05-16 09:17:00,
2013-05-16 04:23:00,63.4,60.1,29.85,East,95,3.0,6.0,89,0.00,,,0.00,0,Wunderground v.1.15,2013-05-16 09:23:00,
2013-05-16 04:29:00,63.5,59.9,29.85,East,95,2.0,6.0,88,0.00,,,0.00,0,Wunderground v.1.15,2013-05-16 09:29:00,
2013-05-16 04:35:00,63.3,59.7,29.85,East,95,2.0,2.0,88,0.00,,,0.00,0,Wunderground v.1.15,2013-05-16 09:35:00,
2013-05-16 04:41:00,63.2,59.6,29.85,East,95,2.0,6.0,88,0.00,,,0.00,0,Wunderground v.1.15,2013-05-16 09:41:00,
2013-05-16 04:47:00,63.2,59.6,29.85,East,96,2.0,6.0,88,0.00,,,0.00,0,Wunderground v.1.15,2013-05-16 09:47:00,
2013-05-16 04:53:00,63.4,59.8,29.85,East,96,3.0,6.0,88,0.00,,,0.00,0,Wunderground v.1.15,2013-05-16 09:53:00,
2013-05-16 04:59:00,63.6,60.0,29.86,East,101,3.0,6.0,88,0.00,,,0.00,0,Wunderground v.1.15,2013-05-16 09:59:00,
2013-05-16 05:05:00,63.4,59.8,29.85,East,101,2.0,6.0,88,0.00,,,0.00,0,Wunderground v.1.15,2013-05-16 10:05:00,
2013-05-16 05:11:00,63.0,59.4,29.85,ESE,106,3.0,6.0,88,0.00,,,0.00,0,Wunderground v.1.15,2013-05-16 10:11:00,
2013-05-16 05:17:00,62.9,59.3,29.85,ESE,102,3.0,6.0,88,0.00,,,0.00,0,Wunderground v.1.15,2013-05-16 10:17:00,
2013-05-16 05:23:00,62.7,59.1,29.85,ESE,102,3.0,6.0,88,0.00,,,0.00,0,Wunderground v.1.15,2013-05-16 10:23:00,
2013-05-16 05:29:00,62.7,59.1,29.85,ESE,102,3.0,6.0,88,0.00,,,0.00,0,Wunderground v.1.15,2013-05-16 10:29:00,
2013-05-16 05:35:00,62.7,59.1,29.85,ESE,104,3.0,3.0,88,0.00,,,0.00,0,Wunderground v.1.15,2013-05-16 10:35:00,
2013-05-16 05:41:00,62.7,59.1,29.85,ESE,108,4.0,6.0,88,0.00,,,0.00,0,Wunderground v.1.15,2013-05-16 10:41:00,
2013-05-16 05:47:00,62.7,59.1,29.86,ESE,106,4.0,6.0,88,0.00,,,0.00,0,Wunderground v.1.15,2013-05-16 10:47:00,
2013-05-16 05:53:00,62.6,59.0,29.86,East,101,4.0,6.0,88,0.00,,,0.00,0,Wunderground v.1.15,2013-05-16 10:53:00,
2013-05-16 05:59:00,62.5,58.9,29.86,ESE,102,4.0,6.0,88,0.00,,,0.00,0,Wunderground v.1.15,2013-05-16 10:59:00,
2013-05-16 06:05:00,62.3,58.7,29.86,ESE,102,2.0,6.0,88,0.00,,,0.00,0,Wunderground v.1.15,2013-05-16 11:05:00,
2013-05-16 06:11:00,62.0,58.4,29.86,ESE,102,2.0,6.0,88,0.00,,,0.00,0,Wunderground v.1.15,2013-05-16 11:11:00,
2013-05-16 06:17:00,61.8,58.2,29.86,ESE,102,2.0,6.0,88,0.00,,,0.00,5,Wunderground v.1.15,2013-05-16 11:17:00,
2013-05-16 06:23:00,61.6,58.0,29.86,ESE,102,2.0,6.0,88,0.00,,,0.00,5,Wunderground v.1.15,2013-05-16 11:23:00,
2013-05-16 06:29:00,61.5,58.2,29.86,ESE,102,2.0,6.0,89,0.00,,,0.00,11,Wunderground v.1.15,2013-05-16 11:29:00,
2013-05-16 06:35:00,61.5,58.2,29.86,ESE,102,2.0,6.0,89,0.00,,,0.00,14,Wunderground v.1.15,2013-05-16 11:35:00,
2013-05-16 06:41:00,61.5,58.2,29.86,ESE,102,2.0,6.0,89,0.00,,,0.00,18,Wunderground v.1.15,2013-05-16 11:41:00,
2013-05-16 06:47:00,61.3,58.0,29.86,ESE,102,2.0,6.0,89,0.00,,,0.00,23,Wunderground v.1.15,2013-05-16 11:47:00,
2013-05-16 06:53:00,61.4,58.1,29.86,ESE,102,2.0,6.0,89,0.00,,,0.00,28,Wunderground v.1.15,2013-05-16 11:53:00,
2013-05-16 06:59:00,61.4,58.1,29.87,ESE,102,2.0,6.0,89,0.00,,,0.00,32,Wunderground v.1.15,2013-05-16 11:59:00,
2013-05-16 07:05:00,61.6,58.3,29.87,ESE,102,2.0,6.0,89,0.00,,,0.00,37,Wunderground v.1.15,2013-05-16 12:05:00,
2013-05-16 07:11:00,61.8,58.5,29.87,ESE,104,3.0,6.0,89,0.00,,,0.00,40,Wunderground v.1.15,2013-05-16 12:11:00,
2013-05-16 07:17:00,62.0,58.7,29.87,ESE,104,3.0,6.0,89,0.00,,,0.00,46,Wunderground v.1.15,2013-05-16 12:17:00,
2013-05-16 07:23:00,62.1,58.8,29.88,ESE,114,3.0,7.0,89,0.00,,,0.00,47,Wunderground v.1.15,2013-05-16 12:23:00,
2013-05-16 07:29:00,62.2,58.9,29.88,ESE,115,4.0,6.0,89,0.00,,,0.00,60,Wunderground v.1.15,2013-05-16 12:29:00,
2013-05-16 07:35:00,62.4,59.1,29.89,ESE,115,3.0,3.0,89,0.00,,,0.00,72,Wunderground v.1.15,2013-05-16 12:35:00,
2013-05-16 07:41:00,62.7,59.4,29.89,ESE,115,2.0,6.0,89,0.00,,,0.00,102,Wunderground v.1.15,2013-05-16 12:41:00,
2013-05-16 07:47:00,63.1,59.8,29.89,ESE,115,1.0,6.0,89,0.00,,,0.00,158,Wunderground v.1.15,2013-05-16 12:47:00,
2013-05-16 07:53:00,63.4,59.8,29.89,ESE,118,3.0,6.0,88,0.00,,,0.00,88,Wunderground v.1.15,2013-05-16 12:53:00,
2013-05-16 07:59:00,63.4,59.8,29.90,ESE,118,4.0,6.0,88,0.00,,,0.00,209,Wunderground v.1.15,2013-05-16 12:59:00,
2013-05-16 08:05:00,63.6,60.0,29.89,ESE,118,3.0,7.0,88,0.00,,,0.00,169,Wunderground v.1.15,2013-05-16 13:05:00,
2013-05-16 08:13:00,64.2,60.6,29.89,ESE,122,6.0,10.0,88,0.00,,,0.00,250,Wunderground v.1.15,2013-05-16 13:13:00,
2013-05-16 08:21:00,64.3,60.3,29.89,ESE,116,7.0,7.0,87,0.00,,,0.00,232,Wunderground v.1.15,2013-05-16 13:21:00,
2013-05-16 08:27:00,64.4,60.1,29.89,ESE,116,6.0,6.0,86,0.00,,,0.00,309,Wunderground v.1.15,2013-05-16 13:27:00,
2013-05-16 08:33:00,64.9,60.6,29.88,ESE,117,5.0,8.0,86,0.00,,,0.00,167,Wunderground v.1.15,2013-05-16 13:33:00,
2013-05-16 08:39:00,64.8,60.5,29.88,ESE,123,6.0,10.0,86,0.00,,,0.00,272,Wunderground v.1.15,2013-05-16 13:39:00,
2013-05-16 08:45:00,65.2,60.6,29.88,SE,124,8.0,9.0,85,0.00,,,0.00,264,Wunderground v.1.15,2013-05-16 13:45:00,
2013-05-16 08:51:00,65.6,60.6,29.88,SE,125,9.0,13.0,84,0.00,,,0.00,229,Wunderground v.1.15,2013-05-16 13:51:00,
2013-05-16 08:57:00,65.6,60.6,29.88,SE,127,9.0,10.0,84,0.00,,,0.00,225,Wunderground v.1.15,2013-05-16 13:57:00,
2013-05-16 09:05:00,66.2,60.9,29.89,ESE,113,6.0,7.0,83,0.00,,,0.00,174,Wunderground v.1.15,2013-05-16 14:05:00,
2013-05-16 09:11:00,66.5,60.5,29.89,ESE,113,5.0,7.0,81,0.00,,,0.00,232,Wunderground v.1.15,2013-05-16 14:11:00,
2013-05-16 09:17:00,66.7,60.3,29.89,ESE,110,5.0,6.0,80,0.00,,,0.00,209,Wunderground v.1.15,2013-05-16 14:17:00,
2013-05-16 09:23:00,66.8,60.4,29.89,SE,124,4.0,6.0,80,0.00,,,0.00,192,Wunderground v.1.15,2013-05-16 14:23:00,
2013-05-16 09:29:00,67.0,60.6,29.90,ESE,117,3.0,7.0,80,0.00,,,0.00,227,Wunderground v.1.15,2013-05-16 14:29:00,
2013-05-16 09:35:00,67.2,60.5,29.89,ESE,105,4.0,4.0,79,0.00,,,0.00,237,Wunderground v.1.15,2013-05-16 14:35:00,
2013-05-16 09:41:00,67.5,60.8,29.89,East,95,4.0,7.0,79,0.00,,,0.00,264,Wunderground v.1.15,2013-05-16 14:41:00,
2013-05-16 09:47:00,67.7,61.0,29.89,SE,125,5.0,6.0,79,0.00,,,0.00,262,Wunderground v.1.15,2013-05-16 14:47:00,
2013-05-16 09:53:00,67.6,60.9,29.89,ESE,116,6.0,9.0,79,0.00,,,0.00,234,Wunderground v.1.15,2013-05-16 14:53:00,
2013-05-16 09:59:00,67.7,61.3,29.89,SE,125,6.0,11.0,80,0.00,,,0.00,294,Wunderground v.1.15,2013-05-16 14:59:00,
2013-05-16 10:05:00,67.8,60.7,29.89,ESE,113,8.0,8.0,78,0.00,,,0.00,350,Wunderground v.1.15,2013-05-16 15:05:00,
2013-05-16 10:11:00,68.4,61.3,29.89,East,98,7.0,9.0,78,0.00,,,0.00,301,Wunderground v.1.15,2013-05-16 15:11:00,
2013-05-16 10:17:00,68.4,60.9,29.89,ESE,118,6.0,7.0,77,0.00,,,0.00,197,Wunderground v.1.15,2013-05-16 15:17:00,
2013-05-16 10:23:00,68.1,61.0,29.89,East,85,7.0,9.0,78,0.00,,,0.00,220,Wunderground v.1.15,2013-05-16 15:23:00,
2013-05-16 10:29:00,68.1,61.0,29.89,East,94,6.0,7.0,78,0.00,,,0.00,271,Wunderground v.1.15,2013-05-16 15:29:00,
2013-05-16 10:35:00,68.4,61.3,29.88,East,86,5.0,5.0,78,0.00,,,0.00,374,Wunderground v.1.15,2013-05-16 15:35:00,
2013-05-16 10:41:00,68.9,61.8,29.88,East,101,6.0,7.0,78,0.00,,,0.00,425,Wunderground v.1.15,2013-05-16 15:41:00,
2013-05-16 10:47:00,69.2,61.7,29.88,ESE,112,6.0,7.0,77,0.00,,,0.00,445,Wunderground v.1.15,2013-05-16 15:47:00,
2013-05-16 10:53:00,69.9,61.2,29.88,East,79,6.0,7.0,74,0.00,,,0.00,373,Wunderground v.1.15,2013-05-16 15:53:00,
2013-05-16 10:59:00,70.0,61.7,29.88,SE,129,6.0,7.0,75,0.00,,,0.00,381,Wunderground v.1.15,2013-05-16 15:59:00,
2013-05-16 11:05:00,70.1,61.4,29.88,SSE,149,5.0,6.0,74,0.00,,,0.00,420,Wunderground v.1.15,2013-05-16 16:05:00,
2013-05-16 11:11:00,70.8,61.7,29.88,SE,137,3.0,6.0,73,0.00,,,0.00,448,Wunderground v.1.15,2013-05-16 16:11:00,
2013-05-16 11:17:00,71.3,62.2,29.88,SE,127,4.0,6.0,73,0.00,,,0.00,478,Wunderground v.1.15,2013-05-16 16:17:00,
2013-05-16 11:23:00,71.9,63.2,29.88,ESE,107,5.0,6.0,74,0.00,,,0.00,816,Wunderground v.1.15,2013-05-16 16:23:00,
2013-05-16 11:29:00,72.3,62.4,29.88,ESE,105,4.0,6.0,71,0.00,,,0.00,821,Wunderground v.1.15,2013-05-16 16:29:00,
2013-05-16 11:35:00,71.9,61.6,29.88,ENE,71,4.0,4.0,70,0.00,,,0.00,415,Wunderground v.1.15,2013-05-16 16:35:00,
2013-05-16 11:41:00,72.1,61.4,29.88,ENE,73,5.0,8.0,69,0.00,,,0.00,443,Wunderground v.1.15,2013-05-16 16:41:00,
2013-05-16 11:47:00,72.4,60.4,29.88,East,100,5.0,8.0,66,0.00,,,0.00,359,Wunderground v.1.15,2013-05-16 16:47:00,
2013-05-16 11:53:00,72.2,60.6,29.88,ESE,110,4.0,8.0,67,0.00,,,0.00,408,Wunderground v.1.15,2013-05-16 16:53:00,
2013-05-16 11:59:00,72.5,60.9,29.88,East,82,4.0,9.0,67,0.00,,,0.00,531,Wunderground v.1.15,2013-05-16 16:59:00,
2013-05-16 12:05:00,72.4,61.2,29.88,East,85,5.0,6.0,68,0.00,,,0.00,411,Wunderground v.1.15,2013-05-16 17:05:00,
2013-05-16 12:11:00,72.7,61.1,29.88,ESE,107,4.0,6.0,67,0.00,,,0.00,329,Wunderground v.1.15,2013-05-16 17:11:00,
2013-05-16 12:17:00,72.9,61.3,29.88,ESE,113,3.0,6.0,67,0.00,,,0.00,392,Wunderground v.1.15,2013-05-16 17:17:00,
2013-05-16 12:23:00,73.0,61.4,29.88,SE,134,4.0,6.0,67,0.00,,,0.00,443,Wunderground v.1.15,2013-05-16 17:23:00,
2013-05-16 12:29:00,73.8,62.2,29.87,SE,135,4.0,6.0,67,0.00,,,0.00,485,Wunderground v.1.15,2013-05-16 17:29:00,
2013-05-16 12:35:00,74.7,62.1,29.87,ESE,109,5.0,7.0,65,0.00,,,0.00,485,Wunderground v.1.15,2013-05-16 17:35:00,
2013-05-16 12:41:00,74.2,61.2,29.87,SE,130,6.0,8.0,64,0.00,,,0.00,452,Wunderground v.1.15,2013-05-16 17:41:00,
2013-05-16 12:47:00,74.2,61.2,29.87,SE,136,5.0,6.0,64,0.00,,,0.00,696,Wunderground v.1.15,2013-05-16 17:47:00,
2013-05-16 12:53:00,74.4,61.0,29.87,SE,130,6.0,8.0,63,0.00,,,0.00,446,Wunderground v.1.15,2013-05-16 17:53:00,
2013-05-16 12:59:00,73.9,61.4,29.87,SE,133,6.0,6.0,65,0.00,,,0.00,487,Wunderground v.1.15,2013-05-16 17:59:00,
2013-05-16 13:05:00,74.2,60.8,29.87,SE,145,5.0,5.0,63,0.00,,,0.00,515,Wunderground v.1.15,2013-05-16 18:05:00,
2013-05-16 13:11:00,74.9,62.3,29.87,ESE,111,6.0,11.0,65,0.00,,,0.00,877,Wunderground v.1.15,2013-05-16 18:11:00,
2013-05-16 13:17:00,75.0,61.1,29.87,SE,139,6.0,6.0,62,0.00,,,0.00,436,Wunderground v.1.15,2013-05-16 18:17:00,
2013-05-16 13:23:00,74.7,61.3,29.87,SE,140,5.0,6.0,63,0.00,,,0.00,367,Wunderground v.1.15,2013-05-16 18:23:00,
2013-05-16 13:29:00,74.3,61.8,29.87,SSE,153,6.0,9.0,65,0.00,,,0.00,345,Wunderground v.1.15,2013-05-16 18:29:00,
2013-05-16 13:35:00,74.2,62.5,29.87,SSE,157,6.0,6.0,67,0.00,,,0.00,448,Wunderground v.1.15,2013-05-16 18:35:00,
2013-05-16 13:41:00,75.2,62.6,29.87,SE,131,5.0,6.0,65,0.00,,,0.00,438,Wunderground v.1.15,2013-05-16 18:41:00,
2013-05-16 13:47:00,74.7,61.7,29.87,SE,131,4.0,6.0,64,0.00,,,0.00,311,Wunderground v.1.15,2013-05-16 18:47:00,
2013-05-16 13:53:00,74.2,60.8,29.87,ESE,123,3.0,6.0,63,0.00,,,0.00,343,Wunderground v.1.15,2013-05-16 18:53:00,
2013-05-16 13:59:00,74.2,60.3,29.87,ESE,123,3.0,6.0,62,0.00,,,0.00,323,Wunderground v.1.15,2013-05-16 18:59:00,
2013-05-16 14:05:00,74.0,59.7,29.87,ESE,123,3.0,6.0,61,0.00,,,0.00,262,Wunderground v.1.15,2013-05-16 19:05:00,
2013-05-16 14:11:00,74.1,61.1,29.87,ESE,123,1.0,6.0,64,0.00,,,0.00,343,Wunderground v.1.15,2013-05-16 19:11:00,
2013-05-16 14:17:00,74.2,61.2,29.87,SE,145,3.0,6.0,64,0.00,,,0.00,373,Wunderground v.1.15,2013-05-16 19:17:00,
2013-05-16 14:23:00,74.7,60.4,29.87,SE,126,5.0,7.0,61,0.00,,,0.00,468,Wunderground v.1.15,2013-05-16 19:23:00,
2013-05-16 14:29:00,75.0,60.6,29.86,SE,132,5.0,8.0,61,0.00,,,0.00,499,Wunderground v.1.15,2013-05-16 19:29:00,
2013-05-16 14:35:00,75.8,60.9,29.86,ESE,116,6.0,7.0,60,0.00,,,0.00,548,Wunderground v.1.15,2013-05-16 19:35:00,
2013-05-16 14:41:00,75.8,60.9,29.86,ESE,115,6.0,8.0,60,0.00,,,0.00,461,Wunderground v.1.15,2013-05-16 19:41:00,
2013-05-16 14:47:00,76.4,62.9,29.86,ESE,116,6.0,7.0,63,0.00,,,0.00,1037,Wunderground v.1.15,2013-05-16 19:47:00,
2013-05-16 14:53:00,76.2,61.8,29.85,ESE,106,7.0,7.0,61,0.00,,,0.00,951,Wunderground v.1.15,2013-05-16 19:53:00,
2013-05-16 14:59:00,77.2,62.7,29.86,SE,124,6.0,9.0,61,0.00,,,0.00,1014,Wunderground v.1.15,2013-05-16 19:59:00,
2013-05-16 15:05:00,76.7,61.3,29.85,SE,140,7.0,11.0,59,0.00,,,0.00,288,Wunderground v.1.15,2013-05-16 20:05:00,
2013-05-16 15:11:00,76.5,61.6,29.85,ESE,112,8.0,15.0,60,0.00,,,0.00,998,Wunderground v.1.15,2013-05-16 20:11:00,
2013-05-16 15:17:00,77.3,62.8,29.85,SE,128,7.0,8.0,61,0.00,,,0.00,979,Wunderground v.1.15,2013-05-16 20:17:00,
2013-05-16 15:23:00,77.8,60.8,29.85,SE,126,6.0,8.0,56,0.00,,,0.00,1183,Wunderground v.1.15,2013-05-16 20:23:00,
2013-05-16 15:29:00,76.7,60.8,29.85,SE,129,7.0,11.0,58,0.00,,,0.00,341,Wunderground v.1.15,2013-05-16 20:29:00,
2013-05-16 15:35:00,75.7,60.8,29.85,SSE,161,7.0,11.0,60,0.00,,,0.00,427,Wunderground v.1.15,2013-05-16 20:35:00,
2013-05-16 15:41:00,75.8,60.9,29.85,SSE,153,7.0,11.0,60,0.00,,,0.00,404,Wunderground v.1.15,2013-05-16 20:41:00,
2013-05-16 15:47:00,76.1,61.2,29.85,ESE,120,6.0,7.0,60,0.00,,,0.00,462,Wunderground v.1.15,2013-05-16 20:47:00,
2013-05-16 15:53:00,76.0,61.1,29.84,ESE,123,7.0,14.0,60,0.00,,,0.00,366,Wunderground v.1.15,2013-05-16 20:53:00,
2013-05-16 15:59:00,75.5,60.6,29.84,SE,125,9.0,9.0,60,0.00,,,0.00,374,Wunderground v.1.15,2013-05-16 20:59:00,
2013-05-16 16:05:00,75.9,61.0,29.84,ESE,122,6.0,10.0,60,0.00,,,0.00,559,Wunderground v.1.15,2013-05-16 21:05:00,
2013-05-16 16:11:00,75.9,60.1,29.84,SE,145,7.0,10.0,58,0.00,,,0.00,316,Wunderground v.1.15,2013-05-16 21:11:00,
2013-05-16 16:17:00,75.9,61.0,29.84,SE,145,7.0,7.0,60,0.00,,,0.00,519,Wunderground v.1.15,2013-05-16 21:17:00,
2013-05-16 16:23:00,76.8,59.9,29.83,SE,124,7.0,8.0,56,0.00,,,0.00,1000,Wunderground v.1.15,2013-05-16 21:23:00,
2013-05-16 16:29:00,77.1,60.2,29.83,SE,144,7.0,11.0,56,0.00,,,0.00,269,Wunderground v.1.15,2013-05-16 21:29:00,
2013-05-16 16:35:00,76.0,59.7,29.83,SE,133,7.0,10.0,57,0.00,,,0.00,334,Wunderground v.1.15,2013-05-16 21:35:00,
2013-05-16 16:41:00,76.8,61.9,29.83,SSE,156,6.0,10.0,60,0.00,,,0.00,877,Wunderground v.1.15,2013-05-16 21:41:00,
2013-05-16 16:47:00,77.8,60.3,29.83,SE,135,7.0,8.0,55,0.00,,,0.00,958,Wunderground v.1.15,2013-05-16 21:47:00,
2013-05-16 16:53:00,77.1,61.2,29.83,SE,135,4.0,8.0,58,0.00,,,0.00,267,Wunderground v.1.15,2013-05-16 21:53:00,
2013-05-16 16:59:00,76.4,61.0,29.83,SE,140,5.0,8.0,59,0.00,,,0.00,248,Wunderground v.1.15,2013-05-16 21:59:00,
2013-05-16 17:05:00,75.8,60.0,29.83,SSE,162,8.0,8.0,58,0.00,,,0.00,257,Wunderground v.1.15,2013-05-16 22:05:00,
2013-05-16 17:11:00,75.4,61.5,29.83,SSE,147,8.0,8.0,62,0.00,,,0.00,316,Wunderground v.1.15,2013-05-16 22:11:00,
2013-05-16 17:17:00,75.6,61.2,29.83,SSE,149,8.0,8.0,61,0.00,,,0.00,209,Wunderground v.1.15,2013-05-16 22:17:00,
2013-05-16 17:23:00,74.8,60.9,29.83,SSE,154,7.0,8.0,62,0.00,,,0.00,188,Wunderground v.1.15,2013-05-16 22:23:00,
2013-05-16 17:29:00,74.7,61.3,29.82,SSE,160,6.0,12.0,63,0.00,,,0.00,230,Wunderground v.1.15,2013-05-16 22:29:00,
2013-05-16 17:35:00,75.9,61.5,29.82,SSE,147,7.0,11.0,61,0.00,,,0.00,591,Wunderground v.1.15,2013-05-16 22:35:00,
2013-05-16 17:41:00,76.4,61.5,29.82,SE,126,8.0,11.0,60,0.00,,,0.00,524,Wunderground v.1.15,2013-05-16 22:41:00,
2013-05-16 17:47:00,76.7,61.3,29.82,SE,139,8.0,12.0,59,0.00,,,0.00,487,Wunderground v.1.15,2013-05-16 22:47:00,
2013-05-16 17:53:00,76.4,61.5,29.82,SSE,165,7.0,12.0,60,0.00,,,0.00,468,Wunderground v.1.15,2013-05-16 22:53:00,
2013-05-16 17:59:00,76.3,60.4,29.82,ESE,118,7.0,11.0,58,0.00,,,0.00,445,Wunderground v.1.15,2013-05-16 22:59:00,
2013-05-16 18:07:00,76.2,61.3,29.82,SE,145,7.0,7.0,60,0.00,,,0.00,415,Wunderground v.1.15,2013-05-16 23:07:00,
2013-05-16 18:13:00,76.3,61.9,29.81,SE,141,6.0,7.0,61,0.00,,,0.00,399,Wunderground v.1.15,2013-05-16 23:13:00,
2013-05-16 18:19:00,76.2,60.8,29.81,ESE,115,6.0,7.0,59,0.00,,,0.00,378,Wunderground v.1.15,2013-05-16 23:19:00,
2013-05-16 18:25:00,75.8,60.4,29.81,ESE,122,6.0,10.0,59,0.00,,,0.00,88,Wunderground v.1.15,2013-05-16 23:25:00,
2013-05-16 18:31:00,75.0,60.6,29.82,SE,127,7.0,10.0,61,0.00,,,0.00,67,Wunderground v.1.15,2013-05-16 23:31:00,
2013-05-16 18:37:00,74.3,60.9,29.82,SE,132,6.0,7.0,63,0.00,,,0.00,72,Wunderground v.1.15,2013-05-16 23:37:00,
2013-05-16 18:43:00,73.9,60.5,29.82,SE,141,6.0,9.0,63,0.00,,,0.00,65,Wunderground v.1.15,2013-05-16 23:43:00,
2013-05-16 18:49:00,73.7,61.2,29.82,SE,145,5.0,8.0,65,0.00,,,0.00,299,Wunderground v.1.15,2013-05-16 23:49:00,
2013-05-16 18:55:00,74.4,60.5,29.82,SE,146,5.0,7.0,62,0.00,,,0.00,271,Wunderground v.1.15,2013-05-16 23:55:00,
2013-05-16 19:01:00,75.1,60.7,29.82,SE,141,6.0,7.0,61,0.00,,,0.00,246,Wunderground v.1.15,2013-05-17 00:01:00,
2013-05-16 19:07:00,75.1,60.7,29.81,SE,131,7.0,7.0,61,0.00,,,0.00,223,Wunderground v.1.15,2013-05-17 00:07:00,
2013-05-16 19:13:00,74.9,61.0,29.82,SE,133,5.0,7.0,62,0.00,,,0.00,199,Wunderground v.1.15,2013-05-17 00:13:00,
2013-05-16 19:19:00,74.8,60.9,29.81,SSE,150,5.0,6.0,62,0.00,,,0.00,176,Wunderground v.1.15,2013-05-17 00:19:00,
2013-05-16 19:25:00,74.2,61.7,29.82,SSE,150,4.0,4.0,65,0.00,,,0.00,151,Wunderground v.1.15,2013-05-17 00:25:00,
2013-05-16 19:31:00,74.0,61.0,29.82,SE,137,4.0,6.0,64,0.00,,,0.00,76,Wunderground v.1.15,2013-05-17 00:31:00,
2013-05-16 19:37:00,74.1,60.7,29.82,SE,129,5.0,6.0,63,0.00,,,0.00,47,Wunderground v.1.15,2013-05-17 00:37:00,
2013-05-16 19:43:00,73.9,60.5,29.82,SE,127,6.0,6.0,63,0.00,,,0.00,42,Wunderground v.1.15,2013-05-17 00:43:00,
2013-05-16 19:49:00,73.6,60.2,29.82,SE,132,6.0,7.0,63,0.00,,,0.00,28,Wunderground v.1.15,2013-05-17 00:49:00,
2013-05-16 19:55:00,73.2,60.3,29.82,SE,137,5.0,5.0,64,0.00,,,0.00,25,Wunderground v.1.15,2013-05-17 00:55:00,
2013-05-16 20:01:00,72.7,60.3,29.82,SE,137,4.0,6.0,65,0.00,,,0.00,23,Wunderground v.1.15,2013-05-17 01:01:00,
2013-05-16 20:07:00,72.0,60.0,29.82,SE,137,3.0,6.0,66,0.00,,,0.00,19,Wunderground v.1.15,2013-05-17 01:07:00,
2013-05-16 20:13:00,71.5,60.0,29.82,SE,137,3.0,6.0,67,0.00,,,0.00,16,Wunderground v.1.15,2013-05-17 01:13:00,
2013-05-16 20:19:00,71.1,60.0,29.82,SE,137,3.0,6.0,68,0.00,,,0.00,9,Wunderground v.1.15,2013-05-17 01:19:00,
2013-05-16 20:25:00,70.7,59.6,29.83,SE,138,3.0,6.0,68,0.00,,,0.00,5,Wunderground v.1.15,2013-05-17 01:25:00,
2013-05-16 20:31:00,69.8,59.6,29.83,SE,138,4.0,6.0,70,0.00,,,0.00,0,Wunderground v.1.15,2013-05-17 01:31:00,
2013-05-16 20:37:00,68.9,59.5,29.84,SE,138,3.0,6.0,72,0.00,,,0.00,0,Wunderground v.1.15,2013-05-17 01:37:00,
2013-05-16 20:43:00,68.3,59.7,29.84,SE,138,2.0,6.0,74,0.00,,,0.00,0,Wunderground v.1.15,2013-05-17 01:43:00,
2013-05-16 20:49:00,68.2,59.6,29.84,SE,138,2.0,6.0,74,0.00,,,0.00,0,Wunderground v.1.15,2013-05-17 01:49:00,
2013-05-16 20:55:00,67.8,59.6,29.84,SE,138,3.0,6.0,75,0.00,,,0.00,0,Wunderground v.1.15,2013-05-17 01:55:00,
2013-05-16 21:01:00,67.3,59.1,29.84,SE,138,3.0,6.0,75,0.00,,,0.00,0,Wunderground v.1.15,2013-05-17 02:01:00,
2013-05-16 21:07:00,66.8,59.0,29.84,SE,138,3.0,6.0,76,0.00,,,0.00,0,Wunderground v.1.15,2013-05-17 02:07:00,
2013-05-16 21:13:00,66.7,58.9,29.84,SE,138,2.0,6.0,76,0.00,,,0.00,0,Wunderground v.1.15,2013-05-17 02:13:00,
2013-05-16 21:19:00,66.2,58.8,29.84,SE,138,2.0,6.0,77,0.00,,,0.00,0,Wunderground v.1.15,2013-05-17 02:19:00,
2013-05-16 21:25:00,65.9,58.8,29.85,SE,138,2.0,6.0,78,0.00,,,0.00,0,Wunderground v.1.15,2013-05-17 02:25:00,
2013-05-16 21:31:00,65.5,58.5,29.85,SE,138,2.0,6.0,78,0.00,,,0.00,0,Wunderground v.1.15,2013-05-17 02:31:00,
2013-05-16 21:37:00,65.4,58.7,29.85,SE,138,2.0,6.0,79,0.00,,,0.00,0,Wunderground v.1.15,2013-05-17 02:37:00,
2013-05-16 21:43:00,65.2,58.5,29.85,SE,138,2.0,6.0,79,0.00,,,0.00,0,Wunderground v.1.15,2013-05-17 02:43:00,
2013-05-16 21:49:00,65.1,58.8,29.85,SE,138,2.0,6.0,80,0.00,,,0.00,0,Wunderground v.1.15,2013-05-17 02:49:00,
2013-05-16 21:55:00,65.1,58.8,29.86,SE,138,2.0,6.0,80,0.00,,,0.00,0,Wunderground v.1.15,2013-05-17 02:55:00,
2013-05-16 22:01:00,65.1,58.8,29.86,SE,139,2.0,6.0,80,0.00,,,0.00,0,Wunderground v.1.15,2013-05-17 03:01:00,
2013-05-16 22:07:00,64.6,58.3,29.86,SE,139,1.0,6.0,80,0.00,,,0.00,0,Wunderground v.1.15,2013-05-17 03:07:00,
2013-05-16 22:13:00,64.5,58.5,29.87,SE,139,0.0,6.0,81,0.00,,,0.00,0,Wunderground v.1.15,2013-05-17 03:13:00,
2013-05-16 22:19:00,64.4,58.4,29.87,SE,139,0.0,6.0,81,0.00,,,0.00,0,Wunderground v.1.15,2013-05-17 03:19:00,
2013-05-16 22:25:00,64.2,58.6,29.87,SE,139,0.0,6.0,82,0.00,,,0.00,0,Wunderground v.1.15,2013-05-17 03:25:00,
2013-05-16 22:31:00,63.9,58.3,29.87,SE,139,0.0,6.0,82,0.00,,,0.00,0,Wunderground v.1.15,2013-05-17 03:31:00,
2013-05-16 22:37:00,63.7,58.4,29.88,SE,139,0.0,6.0,83,0.00,,,0.00,0,Wunderground v.1.15,2013-05-17 03:37:00,
2013-05-16 22:43:00,63.7,58.4,29.88,SE,138,0.0,6.0,83,0.00,,,0.00,0,Wunderground v.1.15,2013-05-17 03:43:00,
2013-05-16 22:49:00,63.6,58.7,29.88,SE,139,0.0,6.0,84,0.00,,,0.00,0,Wunderground v.1.15,2013-05-17 03:49:00,
2013-05-16 22:55:00,63.3,58.4,29.88,SE,138,0.0,6.0,84,0.00,,,0.00,0,Wunderground v.1.15,2013-05-17 03:55:00,
2013-05-16 23:01:00,62.9,58.0,29.88,SE,139,0.0,6.0,84,0.00,,,0.00,0,Wunderground v.1.15,2013-05-17 04:01:00,
2013-05-16 23:03:00,62.8,57.9,29.88,SE,139,0.0,6.0,84,0.00,,,0.00,0,Wunderground v.1.15,2013-05-17 04:03:00,
2013-05-16 23:09:00,62.2,57.3,29.89,SE,139,0.0,6.0,84,0.00,,,0.00,0,Wunderground v.1.15,2013-05-17 04:09:00,
2013-05-16 23:13:00,61.9,57.0,29.89,SE,137,1.0,6.0,84,0.00,,,0.00,0,Wunderground v.1.15,2013-05-17 04:13:00,
2013-05-16 23:15:00,61.5,56.6,29.89,SE,137,2.0,6.0,84,0.00,,,0.00,0,Wunderground v.1.15,2013-05-17 04:15:00,
2013-05-16 23:21:00,61.0,56.5,29.89,SE,137,4.0,6.0,85,0.00,,,0.00,0,Wunderground v.1.15,2013-05-17 04:21:00,
2013-05-16 23:23:00,61.0,56.5,29.90,SE,137,4.0,6.0,85,0.00,,,0.00,0,Wunderground v.1.15,2013-05-17 04:23:00,
2013-05-16 23:29:00,60.9,56.7,29.90,SE,135,4.0,6.0,86,0.00,,,0.00,0,Wunderground v.1.15,2013-05-17 04:29:00,
2013-05-16 23:35:00,60.6,56.4,29.89,SE,135,3.0,6.0,86,0.00,,,0.00,0,Wunderground v.1.15,2013-05-17 04:35:00,
2013-05-16 23:41:00,60.5,56.3,29.89,SE,135,2.0,6.0,86,0.00,,,0.00,0,Wunderground v.1.15,2013-05-17 04:41:00,
2013-05-16 23:47:00,60.6,56.7,29.89,SE,135,3.0,6.0,87,0.00,,,0.00,0,Wunderground v.1.15,2013-05-17 04:47:00,
2013-05-16 23:53:00,60.9,57.0,29.89,SE,135,3.0,6.0,87,0.00,,,0.00,0,Wunderground v.1.15,2013-05-17 04:53:00,
2013-05-16 23:59:00,61.1,57.2,29.89,SE,135,3.0,6.0,87,0.00,,,0.00,0,Wunderground v.1.15,2013-05-17 04:59:00,